Archiv-/Tagesdaten

--Timestamp---	Temp	Chill	HIndex	Humid	Dewpt	Wind	HiWind	WindDir	Rain	Barom	        Solar	ET	UV
--------------	----	-----	------	-----	-----	----	------	-------	----	-----	        -----	--	--
20090518 00:05	17.6	17.6	17.6	71	12.2	11	23	292	0.00	1012.635	0	0.000	0
20090518 00:10	17.4	17.4	17.4	71	12.1	18	35	292	0.00	1012.635	0	0.000	0
20090518 00:15	17.3	17.3	17.3	72	12.2	19	37	292	0.00	1012.804	0	0.000	0
20090518 00:20	17.2	17.2	17.2	72	12.1	13	24	292	0.00	1012.770	0	0.000	0
20090518 00:25	17.1	17.1	17.1	73	12.2	10	19	292	0.00	1012.906	0	0.000	0
20090518 00:30	16.9	16.9	16.9	73	12.1	13	24	292	0.00	1013.041	0	0.000	0
20090518 00:35	16.8	16.8	16.8	73	12.0	8	19	270	0.00	1013.346	0	0.000	0
20090518 00:40	16.7	16.7	16.7	72	11.6	10	18	292	0.00	1013.617	0	0.000	0
20090518 00:45	16.5	16.5	16.5	73	11.6	10	21	292	0.00	1013.786	0	0.000	0
20090518 00:50	16.3	16.3	16.3	76	12.1	11	31	292	0.00	1013.989	0	0.000	0
20090518 00:55	16.1	16.1	16.1	77	12.1	16	29	292	0.00	1014.057	0	0.000	0
20090518 01:00	15.9	15.9	15.9	79	12.2	13	24	292	0.00	1014.294	0	0.040	0
20090518 01:05	15.7	15.7	15.7	80	12.2	13	23	292	0.00	1014.328	0	0.000	0
20090518 01:10	15.5	15.5	15.5	81	12.3	10	21	292	0.00	1014.531	0	0.000	0
20090518 01:15	15.4	15.4	15.4	82	12.4	6	11	292	0.00	1014.666	0	0.000	0
20090518 01:20	15.4	15.4	15.4	82	12.3	5	11	270	0.00	1014.734	0	0.000	0
20090518 01:25	15.4	15.4	15.4	82	12.3	5	11	292	0.00	1014.836	0	0.000	0
20090518 01:30	15.4	15.4	15.4	82	12.3	6	16	292	0.00	1014.904	0	0.000	0
20090518 01:35	15.3	15.3	15.3	82	12.3	3	10	292	0.00	1014.836	0	0.000	0
20090518 01:40	15.3	15.3	15.3	82	12.2	5	11	292	0.00	1014.836	0	0.000	0
20090518 01:45	15.2	15.2	15.2	82	12.2	8	18	292	0.00	1014.937	0	0.000	0
20090518 01:50	15.2	15.2	15.2	82	12.1	8	21	292	0.00	1014.971	0	0.000	0
20090518 01:55	15.1	15.1	15.1	82	12.1	6	19	292	0.00	1015.039	0	0.000	0
20090518 02:00	15.1	15.1	15.1	82	12.0	8	21	292	0.00	1015.174	0	0.020	0
20090518 02:05	15.0	15.0	15.0	82	11.9	5	11	292	0.00	1015.208	0	0.000	0
20090518 02:10	15.0	15.0	15.0	82	11.9	5	11	292	0.00	1015.276	0	0.000	0
20090518 02:15	15.0	15.0	15.0	82	11.9	5	13	292	0.00	1015.310	0	0.000	0
20090518 02:20	15.0	15.0	15.0	82	11.9	8	16	270	0.00	1015.378	0	0.000	0
20090518 02:25	15.0	15.0	15.0	82	11.9	8	16	270	0.00	1015.378	0	0.000	0
20090518 02:30	15.0	15.0	15.0	82	11.9	6	14	270	0.00	1015.344	0	0.000	0
20090518 02:35	14.8	14.8	14.8	82	11.7	5	11	292	0.00	1015.242	0	0.000	0
20090518 02:40	14.7	14.7	14.7	83	11.8	2	8	292	0.00	1015.411	0	0.000	0
20090518 02:45	14.6	14.6	14.6	83	11.7	2	5	292	0.00	1015.310	0	0.000	0
20090518 02:50	14.4	14.4	14.4	83	11.6	3	6	270	0.00	1015.411	0	0.000	0
20090518 02:55	14.3	14.3	14.3	84	11.7	2	6	292	0.00	1015.411	0	0.000	0
20090518 03:00	14.2	14.2	14.2	84	11.5	3	6	247	0.00	1015.682	0	0.020	0
20090518 03:05	14.1	14.1	14.1	85	11.6	3	8	270	0.00	1015.682	0	0.000	0
20090518 03:10	13.9	13.9	13.9	85	11.5	3	6	270	0.00	1015.615	0	0.000	0
20090518 03:15	13.9	13.9	13.9	86	11.6	3	6	270	0.00	1015.615	0	0.000	0
20090518 03:20	13.8	13.8	13.8	86	11.5	2	5	270	0.00	1015.750	0	0.000	0
20090518 03:25	13.8	13.8	13.8	87	11.6	2	5	270	0.00	1015.750	0	0.000	0
20090518 03:30	13.8	13.8	13.8	87	11.6	2	5	270	0.00	1015.919	0	0.000	0
20090518 03:35	13.8	13.8	13.8	87	11.6	2	6	270	0.00	1015.953	0	0.000	0
20090518 03:40	13.8	13.8	13.8	87	11.7	3	6	270	0.00	1015.987	0	0.000	0
20090518 03:45	13.8	13.8	13.8	87	11.7	2	6	270	0.00	1016.055	0	0.000	0
20090518 03:50	13.9	13.9	13.9	87	11.8	3	6	270	0.00	1016.190	0	0.000	0
20090518 03:55	13.9	13.9	13.9	87	11.8	3	8	292	0.00	1016.224	0	0.000	0
20090518 04:00	13.9	13.9	13.9	87	11.8	5	6	292	0.00	1016.258	0	0.020	0
20090518 04:05	13.9	13.9	13.9	87	11.8	5	10	270	0.00	1016.529	0	0.000	0
20090518 04:10	13.9	13.9	13.9	87	11.8	6	11	292	0.00	1016.597	0	0.000	0
20090518 04:15	13.9	13.9	13.9	87	11.8	6	16	292	0.00	1016.664	0	0.000	0
20090518 04:20	14.0	14.0	14.0	87	11.9	8	14	292	0.00	1016.597	0	0.000	0
20090518 04:25	14.1	14.1	14.1	87	11.9	8	16	292	0.00	1016.664	0	0.000	0
20090518 04:30	14.1	14.1	14.1	87	11.9	8	19	270	0.00	1016.732	0	0.000	0
20090518 04:35	14.1	14.1	14.1	88	12.1	6	11	292	0.00	1016.800	0	0.000	0
20090518 04:40	14.1	14.1	14.1	88	12.1	6	11	292	0.00	1016.800	0	0.000	0
20090518 04:45	13.9	13.9	13.9	88	12.0	13	26	292	0.00	1016.800	0	0.000	0
20090518 04:50	13.8	13.8	13.8	87	11.7	11	23	292	0.00	1016.800	0	0.000	0
20090518 04:55	13.7	13.7	13.7	86	11.4	8	18	292	0.00	1016.800	0	0.000	0
20090518 05:00	13.6	13.6	13.6	86	11.3	8	18	292	0.00	1016.834	0	0.020	0
20090518 05:05	13.4	13.4	13.4	87	11.3	8	18	292	0.00	1016.935	0	0.000	0
20090518 05:10	13.3	13.3	13.3	87	11.2	5	11	292	0.00	1016.868	0	0.000	0
20090518 05:15	13.2	13.2	13.2	88	11.3	2	8	292	0.00	1017.105	0	0.000	0
20090518 05:20	13.2	13.2	13.2	88	11.3	3	10	292	0.00	1017.308	0	0.000	0
20090518 05:25	13.2	13.2	13.2	88	11.2	3	8	315	0.00	1017.342	0	0.000	0
20090518 05:30	13.2	13.2	13.2	88	11.2	5	8	202	0.00	1017.409	0	0.000	0
20090518 05:35	13.2	13.2	13.2	89	11.4	6	11	225	0.00	1017.545	0	0.000	0
20090518 05:40	13.2	13.2	13.2	89	11.4	5	10	225	0.00	1017.613	0	0.000	0
20090518 05:45	13.2	13.2	13.2	89	11.4	5	13	292	0.00	1017.613	0	0.000	0
20090518 05:50	13.2	13.2	13.2	89	11.4	5	11	270	0.00	1017.680	0	0.000	0
20090518 05:55	13.1	13.1	13.1	89	11.3	8	18	270	0.20	1017.748	0	0.000	0
20090518 06:00	12.8	12.8	12.8	89	11.0	6	11	247	0.20	1017.748	0	0.000	0
20090518 06:05	12.6	12.6	12.6	89	10.8	8	13	270	0.20	1017.884	0	0.000	0
20090518 06:10	12.3	12.3	12.3	90	10.7	6	14	270	0.00	1017.816	7	0.000	0
20090518 06:15	12.2	12.2	12.2	90	10.6	6	10	292	0.00	1017.816	17	0.000	0
20090518 06:20	12.2	12.2	12.2	90	10.6	5	14	270	0.00	1017.985	15	0.000	0
20090518 06:25	12.1	12.1	12.1	90	10.5	5	11	270	0.00	1018.121	2	0.000	0
20090518 06:30	12.1	12.1	12.1	90	10.5	5	13	270	0.00	1018.290	5	0.000	0
20090518 06:35	12.1	12.1	12.1	91	10.6	3	6	247	0.00	1018.324	5	0.000	0
20090518 06:40	11.9	11.9	11.9	90	10.4	5	11	270	0.00	1018.392	6	0.000	0
20090518 06:45	11.9	11.9	11.9	90	10.3	5	10	270	0.00	1018.595	9	0.000	0
20090518 06:50	11.8	11.8	11.8	90	10.2	5	10	270	0.00	1018.696	12	0.000	0
20090518 06:55	11.8	11.8	11.8	90	10.2	5	11	247	0.00	1018.764	10	0.000	0
20090518 07:00	11.8	11.8	11.8	91	10.4	5	10	270	0.00	1018.798	14	0.000	0
20090518 07:05	11.7	11.7	11.7	91	10.3	5	10	247	0.20	1019.137	23	0.000	0
20090518 07:10	11.7	11.7	11.7	91	10.3	6	14	247	0.00	1019.238	20	0.000	0
20090518 07:15	11.8	11.8	11.8	91	10.4	5	11	247	0.20	1019.374	19	0.000	0
20090518 07:20	11.8	11.8	11.8	91	10.4	5	10	247	0.20	1019.407	17	0.000	0
20090518 07:25	11.8	11.8	11.8	91	10.4	5	11	247	0.00	1019.340	17	0.000	0
20090518 07:30	11.8	11.8	11.8	92	10.5	3	8	225	0.40	1019.306	17	0.000	0
20090518 07:35	11.8	11.8	11.8	92	10.5	2	5	247	0.20	1019.204	19	0.000	0
20090518 07:40	11.8	11.8	11.8	92	10.5	3	6	247	0.20	1019.374	23	0.000	0
20090518 07:45	11.8	11.8	11.8	92	10.6	5	10	247	0.00	1019.340	35	0.000	0
20090518 07:50	11.9	11.9	11.9	92	10.6	3	8	225	0.00	1019.306	65	0.000	0
20090518 07:55	11.9	11.9	11.9	92	10.7	3	6	225	0.20	1019.374	78	0.000	0
20090518 08:00	12.0	12.0	12.0	92	10.7	3	6	225	0.00	1019.306	114	0.020	1
20090518 08:05	12.1	12.1	12.1	92	10.8	2	5	270	0.00	1019.306	133	0.000	1
20090518 08:10	12.2	12.2	12.2	93	11.1	2	6	247	0.00	1019.272	120	0.000	1
20090518 08:15	12.2	12.2	12.2	92	10.9	3	6	247	0.00	1019.272	139	0.000	1
20090518 08:20	12.2	12.2	12.2	92	11.0	3	8	247	0.00	1019.238	179	0.000	1
20090518 08:25	12.2	12.2	12.2	91	10.7	5	10	247	0.00	1019.340	171	0.000	1
20090518 08:30	12.3	12.3	12.3	90	10.7	3	8	270	0.00	1019.374	134	0.000	1
20090518 08:35	12.3	12.3	12.3	90	10.7	3	8	247	0.00	1019.374	117	0.000	1
20090518 08:40	12.3	12.3	12.3	89	10.5	3	6	247	0.00	1019.306	132	0.000	1
20090518 08:45	12.3	12.3	12.3	88	10.4	2	8	247	0.00	1019.272	157	0.000	1
20090518 08:50	12.4	12.4	12.4	88	10.5	2	6	247	0.00	1019.170	175	0.000	1
20090518 08:55	12.5	12.5	12.5	87	10.4	5	8	225	0.00	1019.204	199	0.000	1
20090518 09:00	12.7	12.7	12.7	87	10.6	3	10	202	0.00	1019.238	187	0.060	1
20090518 09:05	12.8	12.8	12.8	88	10.9	2	6	202	0.00	1019.475	187	0.000	1
20090518 09:10	12.9	12.9	12.9	87	10.8	3	10	247	0.00	1019.543	178	0.000	1
20090518 09:15	13.0	13.0	13.0	87	10.9	2	8	225	0.00	1019.611	213	0.000	1
20090518 09:20	13.1	13.1	13.1	87	10.9	3	10	225	0.00	1019.509	210	0.000	1
20090518 09:25	13.2	13.2	13.2	87	11.0	2	6	247	0.00	1019.374	216	0.000	2
20090518 09:30	13.3	13.3	13.3	86	11.0	0	3	247	0.00	1019.306	221	0.000	2
20090518 09:35	13.2	13.2	13.2	85	10.8	2	8	247	0.00	1019.306	200	0.000	1
20090518 09:40	13.2	13.2	13.2	85	10.8	2	5	180	0.00	1019.238	195	0.000	2
20090518 09:45	13.3	13.3	13.3	85	10.8	2	8	180	0.00	1019.238	216	0.000	2
20090518 09:50	13.4	13.4	13.4	86	11.1	5	11	247	0.00	1019.238	381	0.000	3
20090518 09:55	13.8	13.8	13.8	84	11.2	2	8	247	0.00	1019.238	538	0.000	3
20090518 10:00	14.1	14.1	14.1	83	11.3	2	6	292	0.00	1019.306	418	0.100	3
20090518 10:05	14.3	14.3	14.3	82	11.3	2	10	315	0.00	1019.374	555	0.000	4
20090518 10:10	14.6	14.6	14.6	80	11.1	3	10	247	0.00	1019.441	513	0.000	4
20090518 10:15	14.9	14.9	14.9	79	11.3	2	8	225	0.00	1019.441	637	0.000	4
20090518 10:20	15.0	15.0	15.0	78	11.2	2	10	202	0.00	1019.374	683	0.000	4
20090518 10:25	15.2	15.2	15.2	78	11.4	0	3	180	0.00	1019.374	486	0.000	4
20090518 10:30	15.4	15.4	15.4	74	10.8	0	3	180	0.00	1019.272	627	0.000	4
20090518 10:35	15.4	15.4	15.4	74	10.8	2	3	180	0.00	1019.204	547	0.000	4
20090518 10:40	15.4	15.4	15.4	72	10.4	2	6	180	0.00	1019.137	829	0.000	5
20090518 10:45	15.5	15.5	15.5	75	11.1	0	3	180	0.00	1019.103	934	0.000	6
20090518 10:50	15.8	15.8	15.8	75	11.4	0	3	270	0.00	1019.137	822	0.000	6
20090518 10:55	16.2	16.2	16.2	74	11.5	2	5	292	0.00	1019.137	427	0.000	4
20090518 11:00	16.2	16.2	16.2	72	11.1	2	5	337	0.00	1019.204	294	0.260	3
20090518 11:05	16.0	16.0	16.0	75	11.6	2	5	292	0.00	1019.204	275	0.000	2
20090518 11:10	15.8	15.8	15.8	74	11.2	2	8	292	0.00	1019.340	231	0.000	2
20090518 11:15	15.5	15.5	15.5	76	11.3	5	14	292	0.00	1019.407	244	0.000	2
20090518 11:20	15.3	15.3	15.3	75	10.9	2	8	247	0.00	1019.374	285	0.000	3
20090518 11:25	15.2	15.2	15.2	75	10.8	3	10	292	0.00	1019.441	383	0.000	4
20090518 11:30	15.4	15.4	15.4	76	11.2	0	3	270	0.00	1019.340	458	0.000	5
20090518 11:35	15.6	15.6	15.6	74	10.9	2	8	270	0.00	1019.238	341	0.000	4
20090518 11:40	15.7	15.7	15.7	74	11.1	2	5	22	0.00	1019.238	299	0.000	4
20090518 11:45	15.8	15.8	15.8	73	11.0	0	2	22	0.00	1019.238	334	0.000	4
20090518 11:50	15.9	15.9	15.9	73	11.1	2	5	270	0.00	1019.170	359	0.000	4
20090518 11:55	15.9	15.9	15.9	70	10.4	2	5	292	0.00	1019.272	311	0.000	3
20090518 12:00	15.9	15.9	15.9	73	11.1	2	6	315	0.00	1019.204	323	0.140	3
20090518 12:05	15.9	15.9	15.9	71	10.7	2	6	270	0.00	1019.306	334	0.000	4
20090518 12:10	16.0	16.0	16.0	69	10.3	0	3	270	0.00	1019.306	353	0.000	4
20090518 12:15	16.1	16.1	16.1	72	11.0	0	2	22	0.00	1019.306	386	0.000	4
20090518 12:20	16.2	16.2	16.2	72	11.2	0	5	22	0.00	1019.170	454	0.000	5
20090518 12:25	16.3	16.3	16.3	69	10.6	3	6	22	0.00	1019.204	494	0.000	5
20090518 12:30	16.3	16.3	16.3	71	11.1	2	5	22	0.00	1019.137	462	0.000	6
20090518 12:35	16.6	16.6	16.6	73	11.7	0	3	22	0.00	1019.069	445	0.000	5
20090518 12:40	16.7	16.7	16.7	70	11.2	2	6	22	0.00	1019.069	514	0.000	6
20090518 12:45	16.8	16.8	16.8	70	11.3	0	5	22	0.00	1019.035	547	0.000	6
20090518 12:50	16.9	16.9	16.9	71	11.6	2	8	0	0.00	1018.967	482	0.000	5
20090518 12:55	17.0	17.0	17.0	72	11.9	3	8	0	0.00	1018.764	1136	0.000	8
20090518 13:00	17.1	17.1	17.1	70	11.6	3	10	0	0.00	1018.764	1082	0.220	8
20090518 13:05	17.1	17.1	17.1	67	10.9	3	11	22	0.00	1018.798	520	0.000	7
20090518 13:10	16.9	16.9	16.9	69	11.2	2	5	22	0.00	1018.866	615	0.000	6
20090518 13:15	17.1	17.1	17.1	69	11.4	0	3	135	0.00	1018.696	550	0.000	5
20090518 13:20	17.4	17.4	17.4	69	11.6	2	5	135	0.00	1018.662	519	0.000	5
20090518 13:25	17.4	17.4	17.4	71	12.1	2	8	135	0.00	1018.662	379	0.000	4
20090518 13:30	17.5	17.5	17.5	69	11.7	0	5	270	0.00	1018.662	347	0.000	4
20090518 13:35	17.4	17.4	17.4	68	11.4	2	6	22	0.00	1018.662	330	0.000	4
20090518 13:40	17.2	17.2	17.2	68	11.3	2	6	22	0.00	1018.696	337	0.000	4
20090518 13:45	17.2	17.2	17.2	68	11.2	2	5	45	0.00	1018.730	391	0.000	4
20090518 13:50	17.1	17.1	17.1	68	11.1	0	3	45	0.00	1018.696	414	0.000	4
20090518 13:55	17.2	17.2	17.2	69	11.4	0	2	45	0.00	1018.730	426	0.000	4
20090518 14:00	17.3	17.3	17.3	71	12.0	3	6	22	0.00	1018.730	415	0.200	4
20090518 14:05	17.4	17.4	17.4	70	11.9	2	6	22	0.00	1018.866	370	0.000	4
20090518 14:10	17.5	17.5	17.5	72	12.4	2	8	292	0.00	1018.832	285	0.000	3
20090518 14:15	17.4	17.4	17.4	70	11.9	3	11	292	0.00	1018.933	288	0.000	3
20090518 14:20	17.5	17.5	17.5	71	12.2	2	5	0	0.00	1018.832	334	0.000	4
20090518 14:25	17.7	17.7	17.7	71	12.3	2	6	0	0.00	1018.798	512	0.000	5
20090518 14:30	17.9	17.9	17.9	69	12.1	2	5	270	0.00	1018.764	490	0.000	5
20090518 14:35	18.0	18.0	18.0	69	12.2	2	6	292	0.00	1018.662	484	0.000	5
20090518 14:40	17.9	17.9	17.9	69	12.2	2	8	292	0.00	1018.696	397	0.000	4
20090518 14:45	18.0	18.0	18.0	70	12.4	2	6	292	0.00	1018.696	440	0.000	4
20090518 14:50	18.0	18.0	18.0	70	12.4	2	6	292	0.00	1018.764	475	0.000	5
20090518 14:55	18.1	18.1	18.1	70	12.5	3	8	292	0.00	1018.595	449	0.000	4
20090518 15:00	18.2	18.2	18.2	70	12.6	2	6	0	0.00	1018.595	417	0.180	4
20090518 15:05	18.0	18.0	18.0	70	12.4	5	10	0	0.00	1018.459	327	0.000	4
20090518 15:10	17.9	17.9	17.9	69	12.1	3	6	0	0.00	1018.527	351	0.000	4
20090518 15:15	17.8	17.8	17.8	68	11.8	2	10	45	0.00	1018.595	324	0.000	4
20090518 15:20	17.8	17.8	17.8	72	12.7	2	5	45	0.00	1018.459	342	0.000	3
20090518 15:25	17.9	17.9	17.9	67	11.7	2	3	292	0.00	1018.425	361	0.000	4
20090518 15:30	17.9	17.9	17.9	69	12.1	3	10	0	0.00	1018.358	434	0.000	4
20090518 15:35	17.8	17.8	17.8	70	12.3	5	10	22	0.00	1018.425	384	0.000	4
20090518 15:40	17.9	17.9	17.9	70	12.4	0	2	22	0.00	1018.358	384	0.000	4
20090518 15:45	18.1	18.1	18.1	68	12.1	3	8	0	0.00	1018.256	342	0.000	3
20090518 15:50	18.1	18.1	18.1	68	12.1	2	5	22	0.00	1018.324	331	0.000	3
20090518 15:55	18.2	18.2	18.2	68	12.2	2	5	22	0.00	1018.324	265	0.000	2
20090518 16:00	18.2	18.2	18.2	68	12.2	2	5	315	0.00	1018.358	198	0.160	2
20090518 16:05	18.1	18.1	18.1	66	11.6	2	5	22	0.00	1018.290	176	0.000	2
20090518 16:10	17.9	17.9	17.9	68	11.9	0	3	0	0.00	1018.493	126	0.000	1
20090518 16:15	17.8	17.8	17.8	70	12.3	0	3	0	0.00	1018.527	80	0.000	1
20090518 16:20	17.8	17.8	17.8	67	11.6	2	5	315	0.00	1018.459	70	0.000	1
20090518 16:25	17.6	17.6	17.6	68	11.6	2	6	292	0.00	1018.493	62	0.000	1
20090518 16:30	17.5	17.5	17.5	71	12.2	0	2	292	0.00	1018.527	48	0.000	0
20090518 16:35	17.4	17.4	17.4	72	12.3	0	3	315	0.00	1018.527	37	0.000	0
20090518 16:40	17.3	17.3	17.3	73	12.4	0	3	315	0.00	1018.561	31	0.000	0
20090518 16:45	17.2	17.2	17.2	73	12.3	2	6	315	0.00	1018.493	29	0.000	0
20090518 16:50	16.9	16.9	16.9	73	12.1	2	3	292	0.00	1018.425	38	0.000	0
20090518 16:55	16.8	16.8	16.8	75	12.3	2	5	0	0.00	1018.358	60	0.000	0
20090518 17:00	16.7	16.7	16.7	76	12.5	0	3	22	0.00	1018.459	85	0.040	1
20090518 17:05	16.7	16.7	16.7	77	12.6	0	3	270	0.00	1018.764	94	0.000	1
20090518 17:10	16.7	16.7	16.7	77	12.6	0	5	292	0.00	1018.764	57	0.000	0
20090518 17:15	16.6	16.6	16.6	77	12.6	0	2	292	0.00	1018.967	39	0.000	0
20090518 17:20	16.5	16.5	16.5	78	12.6	0	2	292	0.00	1019.035	27	0.000	0
20090518 17:25	16.4	16.4	16.4	78	12.6	0	0	292	0.00	1019.035	24	0.000	0
20090518 17:30	16.3	16.3	16.3	78	12.4	0	3	337	0.00	1018.933	28	0.000	0
20090518 17:35	16.2	16.2	16.2	77	12.1	0	5	337	0.00	1018.899	30	0.000	0
20090518 17:40	16.1	16.1	16.1	79	12.5	0	0	337	0.00	1018.866	36	0.000	0
20090518 17:45	16.1	16.1	16.1	80	12.6	0	0	337	0.00	1018.899	52	0.000	0
20090518 17:50	15.9	15.9	15.9	80	12.5	0	3	0	0.00	1018.899	58	0.000	0
20090518 17:55	15.9	15.9	15.9	81	12.7	0	0	0	0.00	1018.933	41	0.000	0
20090518 18:00	15.8	15.8	15.8	82	12.8	0	2	22	0.00	1019.001	35	0.020	0
20090518 18:05	15.7	15.7	15.7	82	12.7	0	3	292	0.20	1019.204	28	0.000	0
20090518 18:10	15.6	15.6	15.6	82	12.5	0	2	292	0.00	1019.170	29	0.000	0
20090518 18:15	15.5	15.5	15.5	83	12.6	0	2	315	0.00	1019.170	29	0.000	0
20090518 18:20	15.4	15.4	15.4	83	12.6	0	2	315	0.00	1019.306	25	0.000	0
20090518 18:25	15.4	15.4	15.4	84	12.8	0	2	315	0.00	1019.340	21	0.000	0
20090518 18:30	15.4	15.4	15.4	84	12.8	3	8	315	0.00	1019.509	19	0.000	0
20090518 18:35	15.4	15.4	15.4	82	12.3	2	5	292	0.00	1019.678	18	0.000	0
20090518 18:40	15.4	15.4	15.4	82	12.4	2	6	315	0.00	1019.746	20	0.000	0
20090518 18:45	15.4	15.4	15.4	82	12.4	0	2	225	0.00	1019.746	26	0.000	0
20090518 18:50	15.4	15.4	15.4	82	12.4	2	5	225	0.00	1019.611	29	0.000	0
20090518 18:55	15.4	15.4	15.4	83	12.5	2	5	270	0.00	1019.238	36	0.000	0
20090518 19:00	15.3	15.3	15.3	83	12.5	0	2	270	0.00	1019.340	38	0.020	0
20090518 19:05	15.3	15.3	15.3	82	12.3	0	2	270	0.00	1019.374	34	0.000	0
20090518 19:10	15.3	15.3	15.3	83	12.5	0	3	270	0.00	1019.509	35	0.000	0
20090518 19:15	15.3	15.3	15.3	82	12.2	3	8	270	0.00	1019.645	35	0.000	0
20090518 19:20	15.2	15.2	15.2	81	12.0	3	8	292	0.00	1019.611	31	0.000	0
20090518 19:25	15.2	15.2	15.2	81	11.9	2	6	292	0.00	1019.712	33	0.000	0
20090518 19:30	15.1	15.1	15.1	81	11.8	3	8	292	0.00	1019.746	27	0.000	0
20090518 19:35	15.0	15.0	15.0	78	11.2	5	11	292	0.00	1019.645	25	0.000	0
20090518 19:40	15.0	15.0	15.0	78	11.2	5	8	292	0.00	1019.712	23	0.000	0
20090518 19:45	15.0	15.0	15.0	79	11.4	3	10	292	0.00	1019.746	17	0.000	0
20090518 19:50	15.0	15.0	15.0	79	11.4	3	6	315	0.00	1019.814	12	0.000	0
20090518 19:55	14.9	14.9	14.9	80	11.5	3	6	292	0.00	1019.848	9	0.000	0
20090518 20:00	14.9	14.9	14.9	80	11.5	3	8	292	0.00	1019.746	13	0.020	0
20090518 20:05	14.8	14.8	14.8	81	11.5	3	8	292	0.00	1019.543	19	0.000	0
20090518 20:10	14.8	14.8	14.8	81	11.5	5	10	270	0.00	1019.814	20	0.000	0
20090518 20:15	14.7	14.7	14.7	83	11.8	6	11	270	0.00	1019.882	17	0.000	0
20090518 20:20	14.5	14.5	14.5	82	11.5	8	11	292	0.00	1019.983	17	0.000	0
20090518 20:25	14.4	14.4	14.4	83	11.5	6	14	270	0.00	1019.983	20	0.000	0
20090518 20:30	14.3	14.3	14.3	82	11.2	6	11	292	0.00	1020.119	18	0.000	0
20090518 20:35	14.2	14.2	14.2	82	11.1	5	11	270	0.00	1020.152	13	0.000	0
20090518 20:40	14.1	14.1	14.1	82	11.0	5	10	270	0.00	1020.186	7	0.000	0
20090518 20:45	13.9	13.9	13.9	82	10.9	5	14	270	0.00	1020.322	2	0.000	0
20090518 20:50	13.8	13.8	13.8	82	10.8	5	11	270	0.00	1020.390	0	0.000	0
20090518 20:55	13.8	13.8	13.8	82	10.8	3	8	270	0.00	1020.390	0	0.000	0
20090518 21:00	13.7	13.7	13.7	82	10.7	3	8	270	0.00	1020.525	0	0.020	0
20090518 21:05	13.7	13.7	13.7	83	10.8	3	6	247	0.00	1020.525	0	0.000	0
20090518 21:10	13.6	13.6	13.6	83	10.8	3	6	270	0.00	1020.627	0	0.000	0
20090518 21:15	13.6	13.6	13.6	83	10.7	3	6	247	0.00	1020.897	0	0.000	0
20090518 21:20	13.4	13.4	13.4	83	10.6	3	6	247	0.00	1020.999	0	0.000	0
20090518 21:25	13.4	13.4	13.4	82	10.4	5	10	270	0.00	1021.134	0	0.000	0
20090518 21:30	13.3	13.3	13.3	83	10.5	3	8	270	0.00	1021.236	0	0.000	0
20090518 21:35	13.2	13.2	13.2	83	10.4	5	8	247	0.20	1021.439	0	0.000	0
20090518 21:40	13.1	13.1	13.1	84	10.5	3	8	247	0.00	1021.507	0	0.000	0
20090518 21:45	13.0	13.0	13.0	85	10.5	2	6	247	0.20	1021.575	0	0.000	0
20090518 21:50	12.9	12.9	12.9	86	10.6	2	8	247	0.20	1021.676	0	0.000	0
20090518 21:55	12.8	12.8	12.8	87	10.7	2	8	270	0.20	1021.710	0	0.000	0
20090518 22:00	12.7	12.7	12.7	87	10.6	2	6	225	0.20	1021.812	0	0.020	0
20090518 22:05	12.6	12.6	12.6	88	10.6	2	8	225	0.20	1021.676	0	0.000	0
20090518 22:10	12.5	12.5	12.5	88	10.6	2	5	225	0.00	1021.676	0	0.000	0
20090518 22:15	12.5	12.5	12.5	89	10.7	0	5	225	0.00	1021.676	0	0.000	0
20090518 22:20	12.5	12.5	12.5	89	10.7	0	3	225	0.20	1021.609	0	0.000	0
20090518 22:25	12.5	12.5	12.5	89	10.7	2	3	247	0.20	1021.609	0	0.000	0
20090518 22:30	12.5	12.5	12.5	90	10.9	2	6	247	0.00	1021.507	0	0.000	0
20090518 22:35	12.5	12.5	12.5	90	10.9	3	8	247	0.00	1021.473	0	0.000	0
20090518 22:40	12.5	12.5	12.5	90	10.9	2	6	247	0.00	1021.473	0	0.000	0
20090518 22:45	12.5	12.5	12.5	91	11.1	3	10	247	0.00	1021.575	0	0.000	0
20090518 22:50	12.5	12.5	12.5	91	11.1	3	8	225	0.00	1021.473	0	0.000	0
20090518 22:55	12.5	12.5	12.5	91	11.1	2	5	225	0.00	1021.507	0	0.000	0
20090518 23:00	12.5	12.5	12.5	91	11.1	2	6	225	0.00	1021.609	0	0.000	0
20090518 23:05	12.4	12.4	12.4	91	11.0	2	6	225	0.00	1021.676	0	0.000	0
20090518 23:10	12.3	12.3	12.3	91	10.9	2	6	225	0.00	1021.575	0	0.000	0
20090518 23:15	12.3	12.3	12.3	90	10.7	0	2	270	0.00	1021.473	0	0.000	0
20090518 23:20	12.2	12.2	12.2	91	10.8	0	2	270	0.20	1021.541	0	0.000	0
20090518 23:25	12.3	12.3	12.3	91	10.8	0	3	270	0.00	1021.676	0	0.000	0
20090518 23:30	12.2	12.2	12.2	91	10.8	2	5	270	0.00	1021.676	0	0.000	0
20090518 23:35	12.2	12.2	12.2	91	10.8	0	3	270	0.00	1021.643	0	0.000	0
20090518 23:40	12.2	12.2	12.2	91	10.8	0	2	270	0.00	1021.676	0	0.000	0
20090518 23:45	12.2	12.2	12.2	91	10.8	0	2	270	0.00	1021.676	0	0.000	0
20090518 23:50	12.3	12.3	12.3	92	11.0	0	2	270	0.00	1021.676	0	0.000	0
20090518 23:55	12.3	12.3	12.3	91	10.8	2	5	270	0.00	1021.744	0	0.000	0
20090518 24:00	12.2	12.2	12.2	91	10.8	2	5	270	0.00	1021.744	0	0.000	0



Please note the license to use and transfer of this data:
http://creativecommons.org/licenses/by-nc-sa/3.0/deed.en

Bitte beachten sie die Lizenz zur Verwertung und Weitergabe der Daten:
http://creativecommons.org/licenses/by-nc-sa/3.0/deed.de

zurück zur Übersicht der Archivdaten (Monats und Tagesdaten)

Cookies helfen bei der Bereitstellung von Inhalten. Durch die Nutzung dieser Seiten erklärst du dich damit einverstanden, dass Cookies auf deinem Rechner gespeichert werden. Weitere Information